Time;durP1;ratioP1;P1;durP2;ratioP2;P2;SDS_P1;SDS_P2;PMS_P1;PMS_P2;Temp;Humidity;BMP_temperature;BMP_pressure;BME280_temperature;BME280_humidity;BME280_pressure;Samples;Min_cycle;Max_cycle;Signal;HPM_P1;HPM_P2
2022/08/17 00:00:29;;;;;;;8.23;7.55;;;24.10;60.90;;;;;;5036303;28;20212;-85
2022/08/17 00:03:07;;;;;;;7.20;6.70;;;23.80;61.90;;;;;;5037711;28;20212;-85
2022/08/17 00:05:40;;;;;;;7.38;6.88;;;23.90;61.40;;;;;;5038279;28;20173;-84
2022/08/17 00:08:05;;;;;;;7.53;6.93;;;23.90;61.30;;;;;;5038811;28;20170;-85
2022/08/17 00:10:32;;;;;;;7.68;7.15;;;24.10;60.30;;;;;;5038705;28;20243;-86
2022/08/17 00:12:57;;;;;;;7.57;6.97;;;24.30;59.60;;;;;;5035546;28;20184;-85
2022/08/17 00:15:23;;;;;;;7.95;7.35;;;24.20;59.90;;;;;;5038117;28;20192;-86
2022/08/17 00:17:51;;;;;;;7.32;6.82;;;24.10;60.70;;;;;;5034345;28;20193;-86
2022/08/17 00:20:18;;;;;;;7.50;7.00;;;24.10;60.50;;;;;;5042267;28;20215;-88
2022/08/17 00:22:44;;;;;;;7.47;6.85;;;24.10;60.60;;;;;;5038799;28;20208;-87
2022/08/17 00:25:18;;;;;;;7.90;7.32;;;24.10;60.40;;;;;;5028675;28;20188;-86
2022/08/17 00:27:44;;;;;;;7.38;6.88;;;24.10;60.70;;;;;;5023382;28;20193;-85
2022/08/17 00:30:11;;;;;;;7.88;7.10;;;24.10;60.30;;;;;;5038887;28;20205;-84
2022/08/17 00:32:44;;;;;;;7.15;6.65;;;24.10;60.50;;;;;;5022052;28;20216;-87
2022/08/17 00:35:17;;;;;;;7.75;7.07;;;24.10;60.20;;;;;;5020837;28;20241;-86
2022/08/17 00:37:43;;;;;;;7.57;6.97;;;24.10;60.30;;;;;;5022032;28;20275;-88
2022/08/17 00:40:12;;;;;;;7.80;7.30;;;24.20;60.20;;;;;;5029444;28;20216;-86
2022/08/17 00:42:38;;;;;;;7.32;6.72;;;24.20;60.10;;;;;;5035913;28;20266;-88
2022/08/17 00:45:06;;;;;;;7.18;6.50;;;24.20;60.20;;;;;;5021546;28;20173;-85
2022/08/17 00:47:32;;;;;;;7.13;6.65;;;24.10;60.50;;;;;;5036699;28;20204;-86
2022/08/17 00:49:58;;;;;;;8.15;7.60;;;24.00;60.70;;;;;;5040538;28;20224;-85
2022/08/17 00:52:33;;;;;;;7.75;7.18;;;23.90;61.50;;;;;;5041532;28;20184;-85
2022/08/17 00:54:59;;;;;;;7.85;7.35;;;23.90;61.40;;;;;;5040035;28;20185;-84
2022/08/17 00:57:30;;;;;;;7.38;6.88;;;23.80;61.30;;;;;;5040107;28;20211;-89
2022/08/17 01:00:28;;;;;;;7.65;7.15;;;23.80;61.50;;;;;;5043557;28;20200;-85
2022/08/17 01:02:59;;;;;;;7.00;6.40;;;23.90;61.30;;;;;;5042212;28;20219;-86
2022/08/17 01:05:27;;;;;;;7.88;7.32;;;23.80;61.80;;;;;;5031210;28;20191;-85
2022/08/17 01:07:53;;;;;;;7.47;6.95;;;23.70;62.30;;;;;;5042196;28;20648;-87
2022/08/17 01:10:37;;;;;;;7.57;7.07;;;23.80;62.10;;;;;;5041711;28;20212;-86
2022/08/17 01:13:03;;;;;;;7.05;6.55;;;23.90;61.80;;;;;;5042037;28;20662;-86
2022/08/17 01:15:32;;;;;;;7.57;6.90;;;23.80;61.20;;;;;;5042410;28;20240;-86
2022/08/17 01:17:58;;;;;;;7.85;7.35;;;23.60;60.90;;;;;;5029744;28;20196;-85
2022/08/17 01:20:24;;;;;;;7.78;7.25;;;23.20;63.10;;;;;;5038964;28;20201;-86
2022/08/17 01:22:50;;;;;;;7.22;6.72;;;22.90;64.70;;;;;;5039503;28;20266;-86
2022/08/17 01:25:18;;;;;;;8.00;7.50;;;22.60;66.00;;;;;;5040176;28;20181;-88
2022/08/17 01:27:43;;;;;;;8.63;8.02;;;22.40;66.20;;;;;;5039668;28;20244;-86
2022/08/17 01:30:11;;;;;;;7.97;7.38;;;22.20;67.40;;;;;;5025369;28;20692;-84
2022/08/17 01:32:37;;;;;;;7.40;6.90;;;22.20;66.90;;;;;;5021544;28;20197;-86
2022/08/17 01:35:05;;;;;;;9.10;8.30;;;22.20;67.90;;;;;;5034692;28;20199;-85
2022/08/17 01:37:37;;;;;;;8.48;7.68;;;22.10;66.60;;;;;;5040571;28;20205;-86
2022/08/17 01:40:20;;;;;;;7.93;7.28;;;22.30;65.70;;;;;;5028207;28;20282;-84
2022/08/17 01:42:49;;;;;;;7.57;6.97;;;22.50;65.30;;;;;;5024954;28;20291;-84
2022/08/17 01:45:26;;;;;;;8.02;7.32;;;22.60;64.60;;;;;;5039240;28;20713;-84
2022/08/17 01:47:52;;;;;;;7.55;7.05;;;22.70;64.20;;;;;;5032886;28;20196;-83
2022/08/17 01:50:22;;;;;;;8.70;7.45;;;22.80;64.80;;;;;;5034846;28;20778;-84
2022/08/17 01:52:52;;;;;;;7.85;7.25;;;22.80;64.50;;;;;;5037617;28;20196;-84
2022/08/17 01:55:24;;;;;;;7.93;7.22;;;22.80;64.60;;;;;;5038646;28;20187;-84
2022/08/17 01:57:50;;;;;;;8.07;7.40;;;22.70;64.80;;;;;;5038040;28;20203;-84
2022/08/17 02:00:17;;;;;;;7.75;7.15;;;22.60;65.00;;;;;;5039954;28;20232;-85
2022/08/17 02:02:44;;;;;;;8.38;7.72;;;22.70;64.90;;;;;;5035243;28;20280;-85
2022/08/17 02:05:11;;;;;;;8.20;7.57;;;22.70;64.70;;;;;;5032629;28;20552;-84
2022/08/17 02:07:37;;;;;;;7.95;7.25;;;22.70;64.30;;;;;;5039029;28;20189;-83
2022/08/17 02:10:07;;;;;;;7.70;7.18;;;22.80;63.80;;;;;;5040024;28;20462;-84
2022/08/17 02:12:34;;;;;;;7.60;7.10;;;22.90;63.40;;;;;;5040631;28;20197;-85
2022/08/17 02:15:00;;;;;;;8.30;7.70;;;22.90;62.80;;;;;;5041161;28;20196;-87
2022/08/17 02:17:25;;;;;;;7.78;7.28;;;23.10;62.40;;;;;;5033058;28;20201;-85
2022/08/17 02:19:51;;;;;;;8.15;7.35;;;23.20;61.70;;;;;;5036598;28;20213;-84
2022/08/17 02:22:17;;;;;;;7.85;7.18;;;23.30;61.50;;;;;;5040053;28;20208;-85
2022/08/17 02:24:44;;;;;;;7.93;7.22;;;23.40;61.20;;;;;;5035836;28;20252;-86
2022/08/17 02:27:09;;;;;;;8.10;7.43;;;23.40;61.50;;;;;;5037020;28;20182;-88
2022/08/17 02:29:36;;;;;;;8.10;7.55;;;23.30;62.80;;;;;;5038104;28;20239;-85
2022/08/17 02:32:02;;;;;;;9.05;8.27;;;23.10;63.60;;;;;;5037699;28;20189;-86
2022/08/17 02:34:28;;;;;;;8.00;7.50;;;23.20;62.90;;;;;;5038724;28;20189;-85
2022/08/17 02:36:54;;;;;;;7.25;6.78;;;23.20;62.60;;;;;;5034422;28;20408;-85
2022/08/17 02:39:20;;;;;;;7.75;7.15;;;23.30;62.10;;;;;;5038181;28;20571;-87
2022/08/17 02:41:46;;;;;;;7.90;7.40;;;23.30;62.70;;;;;;5034265;28;20213;-85
2022/08/17 02:44:12;;;;;;;8.07;7.47;;;23.20;62.80;;;;;;5035568;28;20492;-85
2022/08/17 02:46:37;;;;;;;7.63;7.00;;;23.10;64.60;;;;;;5034169;28;20675;-84
2022/08/17 02:49:04;;;;;;;7.85;7.25;;;23.00;64.20;;;;;;5037559;28;20205;-85
2022/08/17 02:51:30;;;;;;;8.05;7.55;;;23.10;63.70;;;;;;5035118;28;20197;-84
2022/08/17 02:53:56;;;;;;;7.97;7.35;;;23.20;63.40;;;;;;5025406;28;20208;-84
2022/08/17 02:56:22;;;;;;;8.93;8.13;;;23.20;64.00;;;;;;5026833;28;20586;-85
2022/08/17 02:58:48;;;;;;;9.05;8.35;;;22.60;65.80;;;;;;5033403;28;20190;-85
2022/08/17 03:01:14;;;;;;;9.35;8.55;;;21.90;69.60;;;;;;5032507;28;20180;-86
2022/08/17 03:03:40;;;;;;;9.07;8.48;;;21.70;71.80;;;;;;5031655;28;20204;-85
2022/08/17 03:06:06;;;;;;;9.52;8.85;;;21.60;71.70;;;;;;5026551;28;20200;-85
2022/08/17 03:08:32;;;;;;;9.35;8.75;;;21.60;71.90;;;;;;5030017;28;20196;-86
2022/08/17 03:10:58;;;;;;;8.77;8.07;;;21.60;72.00;;;;;;5027386;28;20215;-83
2022/08/17 03:13:24;;;;;;;9.23;8.52;;;21.70;71.60;;;;;;5032364;28;20252;-84
2022/08/17 03:15:50;;;;;;;9.85;9.10;;;21.90;72.30;;;;;;5037013;28;20230;-83
2022/08/17 03:18:18;;;;;;;11.00;10.00;;;21.80;73.90;;;;;;5037354;28;20238;-88
2022/08/17 03:20:44;;;;;;;11.27;10.38;;;21.60;75.00;;;;;;5033487;28;20235;-86
2022/08/17 03:23:10;;;;;;;10.50;9.77;;;21.30;75.60;;;;;;5032553;28;20204;-85
2022/08/17 03:25:40;;;;;;;10.85;10.05;;;21.00;77.10;;;;;;5031144;28;20642;-84
2022/08/17 03:28:06;;;;;;;10.20;9.50;;;21.00;77.70;;;;;;5030951;28;20174;-85
2022/08/17 03:30:33;;;;;;;11.55;10.63;;;21.00;77.30;;;;;;5032033;28;20221;-86
2022/08/17 03:33:01;;;;;;;10.77;10.02;;;20.90;77.80;;;;;;5033974;28;20271;-85
2022/08/17 03:35:32;;;;;;;10.18;9.07;;;21.10;77.00;;;;;;5032612;28;20275;-84
2022/08/17 03:37:58;;;;;;;10.40;9.45;;;21.30;75.70;;;;;;5035187;28;20212;-85
2022/08/17 03:40:24;;;;;;;10.70;9.80;;;21.50;75.50;;;;;;5032204;28;20227;-85
2022/08/17 03:42:52;;;;;;;10.27;9.57;;;21.50;74.60;;;;;;5034600;28;20213;-84
2022/08/17 03:56:42;;;;;;;10.77;9.98;;;21.70;73.90;;;;;;5033306;28;20274;-84
2022/08/17 03:59:18;;;;;;;11.40;10.60;;;21.60;74.80;;;;;;5032296;28;20683;-85
2022/08/17 04:01:50;;;;;;;11.27;10.18;;;21.50;75.60;;;;;;5040264;28;20212;-83
2022/08/17 04:04:17;;;;;;;10.73;9.90;;;21.60;75.40;;;;;;5036388;28;21344;-85
2022/08/17 04:06:43;;;;;;;11.38;10.57;;;21.50;75.60;;;;;;5034379;28;20208;-84
2022/08/17 04:09:09;;;;;;;10.82;9.98;;;21.50;75.70;;;;;;5033034;28;20262;-83
2022/08/17 04:11:35;;;;;;;10.38;9.68;;;21.60;75.20;;;;;;5034436;28;20182;-83
2022/08/17 04:14:02;;;;;;;10.43;9.63;;;21.70;74.20;;;;;;5036012;28;20187;-84
2022/08/17 04:16:30;;;;;;;11.38;10.32;;;21.80;73.50;;;;;;5036194;28;20215;-85
2022/08/17 04:18:55;;;;;;;10.45;9.65;;;21.80;73.50;;;;;;5037643;28;20192;-84
2022/08/17 04:21:21;;;;;;;10.63;9.65;;;21.90;73.20;;;;;;5034932;28;20185;-83
2022/08/17 04:23:48;;;;;;;10.65;9.85;;;22.00;72.50;;;;;;5031853;28;20685;-84
2022/08/17 04:26:14;;;;;;;10.32;9.52;;;22.10;71.70;;;;;;5035175;28;20249;-85
2022/08/17 04:28:41;;;;;;;10.00;9.30;;;22.10;71.90;;;;;;5039723;28;20250;-85
2022/08/17 04:31:12;;;;;;;10.75;9.88;;;22.20;71.40;;;;;;5036772;28;20205;-85
2022/08/17 04:33:39;;;;;;;11.57;10.25;;;22.30;71.10;;;;;;5037495;28;20252;-84
2022/08/17 04:36:07;;;;;;;10.57;9.70;;;22.40;70.60;;;;;;5038938;28;20197;-84
2022/08/17 04:38:35;;;;;;;11.27;9.90;;;22.50;70.10;;;;;;5032842;28;20209;-84
2022/08/17 04:43:47;;;;;;;9.52;8.75;;;22.60;70.30;;;;;;5035365;28;20204;-83
2022/08/17 04:46:18;;;;;;;14.20;9.50;;;22.50;70.90;;;;;;5039621;28;20306;-84
2022/08/17 04:48:47;;;;;;;12.70;9.52;;;22.50;71.40;;;;;;5039540;28;20177;-84
2022/08/17 04:51:14;;;;;;;10.13;9.20;;;22.50;70.90;;;;;;5033844;28;20193;-85
2022/08/17 04:53:43;;;;;;;12.43;9.85;;;22.40;71.60;;;;;;5030383;28;20224;-84
2022/08/17 04:56:10;;;;;;;11.07;10.27;;;22.20;71.60;;;;;;5029577;28;20280;-84
2022/08/17 04:58:37;;;;;;;10.90;9.77;;;22.20;72.20;;;;;;5033381;28;20287;-84
2022/08/17 05:01:04;;;;;;;10.60;9.80;;;22.00;72.90;;;;;;5031620;28;20224;-84
2022/08/17 05:03:30;;;;;;;10.80;9.68;;;22.00;73.30;;;;;;5037513;28;20218;-83
2022/08/17 05:05:56;;;;;;;10.23;9.32;;;22.00;72.70;;;;;;5034411;28;20237;-83
2022/08/17 05:08:22;;;;;;;10.20;9.32;;;22.20;72.20;;;;;;5038761;28;20232;-84
2022/08/17 05:10:48;;;;;;;10.13;9.38;;;22.40;70.70;;;;;;5033943;28;20205;-84
2022/08/17 05:13:25;;;;;;;10.23;9.27;;;22.60;70.40;;;;;;5032197;28;20212;-86
2022/08/17 05:15:57;;;;;;;10.57;9.63;;;22.80;69.00;;;;;;5041540;28;20264;-83
2022/08/17 05:18:23;;;;;;;10.27;9.57;;;22.90;68.60;;;;;;5035780;28;20637;-85
2022/08/17 05:20:49;;;;;;;10.57;9.57;;;23.00;67.60;;;;;;5036206;28;20273;-83
2022/08/17 05:23:17;;;;;;;11.45;10.38;;;23.10;67.60;;;;;;5034821;28;20308;-85
2022/08/17 05:25:46;;;;;;;10.43;9.68;;;23.10;68.00;;;;;;5032641;28;20182;-84
2022/08/17 05:28:11;;;;;;;10.00;8.98;;;23.10;69.20;;;;;;5031190;28;20185;-84
2022/08/17 05:30:39;;;;;;;11.25;9.85;;;23.10;68.90;;;;;;5035036;28;20216;-84
2022/08/17 05:33:15;;;;;;;10.52;9.57;;;23.10;68.40;;;;;;5036164;28;20204;-84
2022/08/17 05:35:43;;;;;;;10.98;10.07;;;23.10;69.00;;;;;;5034744;28;20431;-83
2022/08/17 05:38:09;;;;;;;10.48;9.70;;;23.10;68.90;;;;;;5028589;28;20249;-83
2022/08/17 05:40:35;;;;;;;10.68;9.98;;;23.10;69.40;;;;;;5035147;28;20241;-84
2022/08/17 05:43:11;;;;;;;10.85;9.85;;;23.10;69.20;;;;;;5030846;28;20396;-84
2022/08/17 05:45:41;;;;;;;10.25;9.52;;;22.90;69.50;;;;;;5033671;28;20263;-85
2022/08/17 05:48:09;;;;;;;10.25;9.40;;;22.90;70.10;;;;;;5033444;28;20177;-84
2022/08/17 05:50:54;;;;;;;10.77;9.93;;;22.90;70.30;;;;;;5030071;28;20789;-84
2022/08/17 05:53:51;;;;;;;10.13;9.38;;;23.10;68.90;;;;;;5031282;28;20188;-84
2022/08/17 05:56:25;;;;;;;9.60;8.85;;;23.20;68.50;;;;;;5030692;28;20180;-85
2022/08/17 05:59:10;;;;;;;10.85;9.98;;;23.30;68.40;;;;;;5026854;28;20173;-84
2022/08/17 06:02:05;;;;;;;9.75;9.05;;;23.40;67.90;;;;;;5027446;28;20272;-84
2022/08/17 06:04:51;;;;;;;10.68;9.77;;;23.40;67.40;;;;;;5030432;28;20605;-84
2022/08/17 06:07:25;;;;;;;11.02;9.50;;;23.10;71.10;;;;;;5029035;28;20640;-84
2022/08/17 06:10:08;;;;;;;12.63;11.52;;;23.00;71.00;;;;;;5032185;28;20268;-86
2022/08/17 06:13:08;;;;;;;11.55;10.57;;;22.70;73.40;;;;;;5031928;28;20324;-83
2022/08/17 06:16:03;;;;;;;21.02;19.63;;;22.50;75.20;;;;;;5034250;28;20235;-84
2022/08/17 06:18:40;;;;;;;11.00;10.20;;;22.30;76.90;;;;;;5029621;28;20189;-84
2022/08/17 06:21:10;;;;;;;13.25;11.95;;;22.40;75.90;;;;;;5028169;28;20303;-85
2022/08/17 06:23:43;;;;;;;12.38;11.27;;;22.50;75.90;;;;;;5030323;28;20201;-84
2022/08/17 06:26:19;;;;;;;11.70;10.80;;;22.50;76.50;;;;;;5035290;28;20215;-83
2022/08/17 06:28:53;;;;;;;11.90;11.00;;;22.40;80.30;;;;;;5026665;28;20180;-83
2022/08/17 06:31:26;;;;;;;11.00;10.20;;;22.60;82.80;;;;;;5029593;28;20193;-84
2022/08/17 06:33:53;;;;;;;10.60;9.80;;;22.80;78.80;;;;;;5025370;28;20181;-84
2022/08/17 06:36:25;;;;;;;11.73;10.82;;;22.90;77.50;;;;;;5035039;28;20200;-84
2022/08/17 06:39:18;;;;;;;11.63;10.80;;;23.10;79.80;;;;;;5034759;28;20216;-84
2022/08/17 06:41:48;;;;;;;12.80;11.80;;;23.20;77.50;;;;;;5035011;28;20185;-83
2022/08/17 06:44:32;;;;;;;11.55;10.52;;;23.20;76.80;;;;;;5031565;28;20178;-82
2022/08/17 06:47:16;;;;;;;12.48;11.52;;;23.20;80.10;;;;;;5033423;28;20567;-82
2022/08/17 06:50:08;;;;;;;11.73;10.82;;;23.20;83.50;;;;;;5036867;28;20285;-82
2022/08/17 06:52:48;;;;;;;12.50;11.50;;;23.10;82.70;;;;;;5033308;28;20578;-83
2022/08/17 06:55:22;;;;;;;11.43;10.60;;;23.10;81.70;;;;;;5033783;28;20196;-83
2022/08/17 06:57:58;;;;;;;11.80;10.90;;;23.10;81.30;;;;;;5036053;28;20177;-83
2022/08/17 07:00:32;;;;;;;11.63;10.65;;;23.10;82.50;;;;;;5028834;28;20209;-83
2022/08/17 07:03:26;;;;;;;11.23;10.30;;;23.20;81.70;;;;;;5035979;28;20200;-83
2022/08/17 07:06:03;;;;;;;11.80;10.88;;;23.30;83.50;;;;;;5036490;28;20734;-85
2022/08/17 07:08:56;;;;;;;11.07;10.18;;;22.90;85.00;;;;;;5032935;28;20176;-84
2022/08/17 07:11:32;;;;;;;11.73;10.60;;;22.90;86.10;;;;;;5030514;28;20268;-83
2022/08/17 07:14:17;;;;;;;11.20;10.40;;;22.80;86.00;;;;;;5026238;28;20188;-82
2022/08/17 07:16:50;;;;;;;11.68;10.88;;;22.60;89.50;;;;;;5032832;28;20556;-84
2022/08/17 07:19:21;;;;;;;12.13;11.10;;;22.50;89.90;;;;;;5034652;28;20201;-84
2022/08/17 07:22:06;;;;;;;11.18;10.27;;;22.60;88.90;;;;;;5033895;28;20181;-84
2022/08/17 07:24:58;;;;;;;11.63;10.82;;;22.70;89.40;;;;;;5031522;28;20683;-84
2022/08/17 07:27:29;;;;;;;12.05;11.15;;;22.80;86.70;;;;;;5033858;28;20213;-85
2022/08/17 07:30:09;;;;;;;11.52;10.63;;;22.90;85.80;;;;;;5034944;28;20213;-85
2022/08/17 07:32:40;;;;;;;11.80;10.88;;;23.10;85.70;;;;;;5043126;28;20197;-83
2022/08/17 07:35:13;;;;;;;11.65;10.85;;;23.10;84.40;;;;;;5038217;28;20192;-84
2022/08/17 07:37:47;;;;;;;11.85;10.85;;;23.10;84.80;;;;;;5036003;28;20192;-83
2022/08/17 07:40:15;;;;;;;11.43;10.55;;;23.20;83.50;;;;;;5034251;28;20204;-83
2022/08/17 07:42:40;;;;;;;11.75;10.88;;;23.20;83.20;;;;;;5034391;28;20695;-84
2022/08/17 07:48:17;;;;;;;12.40;10.70;;;23.30;83.90;;;;;;5033253;28;20297;-85
2022/08/17 07:50:38;;;;;;;11.85;10.88;;;23.40;87.40;;;;;;5028895;28;20255;-84
2022/08/17 07:53:24;;;;;;;12.43;11.27;;;23.40;85.40;;;;;;5041406;28;20189;-85
2022/08/17 07:55:52;;;;;;;11.55;10.73;;;23.40;86.40;;;;;;5048949;28;20188;-84
2022/08/17 07:58:22;;;;;;;13.27;11.38;;;23.40;86.00;;;;;;5048745;28;20625;-84
2022/08/17 08:01:17;;;;;;;12.95;11.85;;;23.40;86.70;;;;;;5032593;28;20239;-85
2022/08/17 08:03:44;;;;;;;12.70;11.80;;;23.50;87.00;;;;;;5027646;28;20205;-85
2022/08/17 08:06:20;;;;;;;13.15;11.90;;;23.50;85.40;;;;;;5029297;28;20181;-85
2022/08/17 08:08:53;;;;;;;11.55;10.68;;;23.40;86.20;;;;;;5028923;28;20212;-85
2022/08/17 08:11:31;;;;;;;12.85;11.85;;;23.40;86.50;;;;;;5026954;28;20612;-85
2022/08/17 08:14:29;;;;;;;13.13;12.02;;;23.30;86.60;;;;;;5023447;28;20211;-84
2022/08/17 08:17:06;;;;;;;13.02;12.02;;;23.30;86.20;;;;;;5043750;28;20257;-84
2022/08/17 08:19:32;;;;;;;12.70;11.73;;;23.30;85.90;;;;;;5028797;28;20224;-84
2022/08/17 08:22:09;;;;;;;12.57;11.60;;;23.20;86.20;;;;;;5022046;28;20212;-84
2022/08/17 08:24:41;;;;;;;11.43;10.43;;;23.00;85.90;;;;;;5030095;28;20640;-84
2022/08/17 08:27:28;;;;;;;11.70;10.90;;;23.00;85.10;;;;;;5030761;28;20196;-84
2022/08/17 08:30:20;;;;;;;10.90;10.05;;;23.10;86.40;;;;;;5032329;28;20659;-84
2022/08/17 08:33:21;;;;;;;10.88;10.15;;;23.10;83.70;;;;;;5030686;28;20219;-84
2022/08/17 08:36:27;;;;;;;10.00;9.25;;;23.10;85.00;;;;;;5030354;28;20648;-84
2022/08/17 08:39:10;;;;;;;11.10;10.15;;;23.10;85.50;;;;;;5033920;28;20208;-84
2022/08/17 08:41:49;;;;;;;11.13;10.20;;;23.10;84.80;;;;;;5033763;28;20228;-85
2022/08/17 08:44:35;;;;;;;10.30;9.35;;;23.10;84.60;;;;;;5033148;28;20192;-84
2022/08/17 08:47:17;;;;;;;11.40;10.40;;;23.10;83.80;;;;;;5033694;28;20181;-85
2022/08/17 08:50:07;;;;;;;10.07;9.18;;;22.90;84.00;;;;;;5033653;28;20229;-85
2022/08/17 08:53:17;;;;;;;9.13;8.43;;;23.00;86.00;;;;;;5033178;28;20457;-84
2022/08/17 08:56:07;;;;;;;10.18;9.35;;;23.20;82.80;;;;;;5002351;28;20205;-85
2022/08/17 08:58:54;;;;;;;10.60;9.85;;;23.40;84.20;;;;;;5029603;28;20194;-83
2022/08/17 09:01:36;;;;;;;11.25;10.35;;;23.40;86.60;;;;;;5035748;28;20208;-83
2022/08/17 09:04:17;;;;;;;11.63;10.82;;;23.20;88.30;;;;;;5031798;28;20177;-84
2022/08/17 09:06:48;;;;;;;10.55;9.75;;;23.20;88.00;;;;;;5034405;28;20326;-84
2022/08/17 09:09:21;;;;;;;11.20;10.23;;;23.10;87.80;;;;;;5034363;28;20204;-84
2022/08/17 09:12:09;;;;;;;11.75;10.85;;;23.20;88.50;;;;;;5035019;28;20276;-84
2022/08/17 09:14:44;;;;;;;11.40;10.60;;;23.10;89.20;;;;;;5033211;28;20188;-85
2022/08/17 09:17:20;;;;;;;11.10;10.30;;;23.10;90.30;;;;;;5029648;28;20177;-86
2022/08/17 09:19:58;;;;;;;12.25;11.32;;;23.10;90.30;;;;;;5029537;28;20212;-86
2022/08/17 09:22:38;;;;;;;12.07;11.05;;;23.10;91.30;;;;;;5032881;28;20763;-87
2022/08/17 09:25:15;;;;;;;11.75;10.93;;;23.10;90.70;;;;;;5013581;28;20270;-87
2022/08/17 09:28:06;;;;;;;12.75;11.65;;;23.10;90.50;;;;;;5030588;28;20192;-86
2022/08/17 09:30:43;;;;;;;12.60;11.60;;;22.80;92.20;;;;;;5032497;28;20208;-85
2022/08/17 09:33:13;;;;;;;11.57;10.77;;;22.80;92.50;;;;;;5029725;28;20200;-86
2022/08/17 09:35:57;;;;;;;12.98;11.98;;;22.80;93.00;;;;;;5034067;28;20197;-84
2022/08/17 09:38:40;;;;;;;12.50;11.60;;;22.80;92.70;;;;;;5032054;28;20207;-86
2022/08/17 09:41:19;;;;;;;12.85;11.73;;;22.80;93.40;;;;;;5032345;28;20181;-86
2022/08/17 09:43:51;;;;;;;13.65;12.75;;;22.80;94.20;;;;;;5032297;28;20212;-86
2022/08/17 09:46:25;;;;;;;13.40;12.30;;;22.60;93.80;;;;;;5031774;28;20181;-86
2022/08/17 09:49:08;;;;;;;13.90;12.80;;;22.70;93.70;;;;;;5033068;28;20247;-84
2022/08/17 09:51:43;;;;;;;13.95;12.75;;;22.60;95.20;;;;;;5032459;28;20193;-85
2022/08/17 09:54:26;;;;;;;12.52;11.68;;;22.50;93.90;;;;;;5029685;28;20184;-84
2022/08/17 09:57:04;;;;;;;14.18;13.07;;;22.60;93.80;;;;;;5033595;28;20493;-85
2022/08/17 10:00:12;;;;;;;13.43;12.30;;;22.60;94.90;;;;;;5032464;28;20196;-85
2022/08/17 10:02:59;;;;;;;13.73;12.52;;;22.60;93.40;;;;;;5030021;28;20208;-85
2022/08/17 10:05:36;;;;;;;13.30;12.27;;;22.70;92.90;;;;;;5031748;28;20189;-84
2022/08/17 10:08:09;;;;;;;13.90;12.93;;;22.80;93.40;;;;;;5030370;28;20173;-84
2022/08/17 10:10:52;;;;;;;13.70;12.68;;;22.80;93.80;;;;;;5030409;28;20220;-87
2022/08/17 10:13:43;;;;;;;12.85;12.02;;;22.70;94.70;;;;;;5033562;28;20177;-84
2022/08/17 10:16:21;;;;;;;13.75;12.75;;;22.60;94.70;;;;;;5031547;28;20191;-84
2022/08/17 10:19:39;;;;;;;14.73;13.63;;;23.00;94.00;;;;;;5031161;28;20260;-84
2022/08/17 10:28:14;;;;;;;14.57;13.32;;;23.40;91.00;;;;;;5034459;28;20191;-85
2022/08/17 10:30:47;;;;;;;13.48;12.40;;;23.20;89.80;;;;;;5032213;28;20205;-84
2022/08/17 10:33:22;;;;;;;13.70;12.70;;;23.10;89.20;;;;;;5033062;28;20189;-84
2022/08/17 10:36:17;;;;;;;13.88;12.77;;;23.10;92.60;;;;;;5029996;28;20173;-84
2022/08/17 10:38:48;;;;;;;13.45;12.38;;;22.90;89.10;;;;;;5031252;28;20264;-84
2022/08/17 10:41:30;;;;;;;13.02;12.02;;;23.00;90.10;;;;;;5031284;28;20271;-84
2022/08/17 10:44:08;;;;;;;13.48;12.48;;;23.10;90.60;;;;;;5028242;28;20205;-85
2022/08/17 10:46:52;;;;;;;13.48;12.52;;;23.10;91.00;;;;;;5028526;28;20217;-85
2022/08/17 10:49:19;;;;;;;13.45;12.35;;;23.10;89.70;;;;;;5028436;28;20232;-84
2022/08/17 10:51:57;;;;;;;13.57;12.43;;;22.90;90.00;;;;;;5032023;28;20502;-84
2022/08/17 10:54:23;;;;;;;13.27;12.27;;;22.90;91.00;;;;;;5032019;28;20184;-85
2022/08/17 10:56:53;;;;;;;12.85;11.75;;;23.10;90.40;;;;;;5031598;28;20264;-84
2022/08/17 10:59:34;;;;;;;10.85;9.95;;;23.10;90.20;;;;;;5031270;28;20565;-85
2022/08/17 11:02:22;;;;;;;12.07;11.05;;;23.00;88.40;;;;;;5029620;28;20440;-85
2022/08/17 11:04:48;;;;;;;11.27;10.38;;;23.00;88.20;;;;;;5029268;28;20560;-84
2022/08/17 11:07:20;;;;;;;10.63;9.70;;;23.10;87.50;;;;;;5032742;28;20663;-84
2022/08/17 11:10:04;;;;;;;11.20;10.30;;;23.30;87.70;;;;;;5032984;28;20255;-85
2022/08/17 11:12:36;;;;;;;11.02;10.00;;;23.40;85.60;;;;;;5029636;28;20203;-84
2022/08/17 11:15:44;;;;;;;10.90;10.05;;;23.50;86.10;;;;;;5029098;28;20176;-85
2022/08/17 11:18:23;;;;;;;10.30;9.50;;;23.40;83.30;;;;;;5032003;28;20199;-84
2022/08/17 11:21:12;;;;;;;9.77;9.02;;;23.40;86.10;;;;;;5031107;28;20216;-83
2022/08/17 11:23:51;;;;;;;11.13;10.23;;;23.50;84.50;;;;;;5032918;28;20216;-83
2022/08/17 11:26:33;;;;;;;9.88;9.05;;;23.70;86.10;;;;;;5032379;28;20224;-83
2022/08/17 11:29:05;;;;;;;9.30;8.52;;;24.20;81.80;;;;;;5021801;28;20295;-83
2022/08/17 11:31:39;;;;;;;8.88;8.18;;;24.60;80.30;;;;;;5024072;28;20186;-84
2022/08/17 11:34:17;;;;;;;9.27;8.45;;;24.60;77.90;;;;;;5024426;28;20232;-84
2022/08/17 11:37:19;;;;;;;8.68;7.97;;;24.50;77.50;;;;;;5020257;28;20177;-83
2022/08/17 11:40:25;;;;;;;8.60;7.97;;;24.70;76.80;;;;;;5023355;28;20279;-83
2022/08/17 11:43:44;;;;;;;9.68;8.88;;;24.70;75.70;;;;;;5011559;28;20580;-84
2022/08/17 11:51:31;;;;;;;7.93;7.35;;;24.80;77.80;;;;;;4994472;28;20700;-83
2022/08/17 11:52:11;;;;;;;8.35;7.75;;;25.30;72.70;;;;;;5022145;28;20258;-83
2022/08/17 11:54:40;;;;;;;7.78;7.18;;;25.50;71.30;;;;;;5022336;28;20181;-84
2022/08/17 11:57:24;;;;;;;7.55;6.95;;;25.70;66.80;;;;;;5021944;28;20506;-84
2022/08/17 11:59:50;;;;;;;8.40;7.70;;;25.90;66.10;;;;;;5022650;28;20204;-83
2022/08/17 12:02:26;;;;;;;7.90;7.40;;;25.90;67.80;;;;;;5021484;28;20216;-83
2022/08/17 12:05:15;;;;;;;7.63;7.13;;;25.90;67.80;;;;;;5021750;28;20180;-84
2022/08/17 12:07:55;;;;;;;7.20;6.80;;;25.70;67.90;;;;;;5021643;28;20188;-83
2022/08/17 12:10:30;;;;;;;7.57;6.97;;;25.70;68.10;;;;;;5020871;28;20247;-83
2022/08/17 12:12:58;;;;;;;8.07;7.45;;;25.80;68.10;;;;;;5028159;28;20200;-84
2022/08/17 12:15:31;;;;;;;8.30;7.70;;;25.80;68.70;;;;;;5024588;28;20204;-84
2022/08/17 12:17:57;;;;;;;7.57;6.97;;;25.80;68.70;;;;;;5027538;28;20311;-84
2022/08/17 12:20:27;;;;;;;7.60;7.10;;;25.90;69.50;;;;;;5027073;28;20340;-83
2022/08/17 12:23:10;;;;;;;9.32;8.43;;;26.10;69.00;;;;;;5023275;28;20517;-83
2022/08/17 12:26:08;;;;;;;7.88;7.28;;;26.10;69.20;;;;;;5024575;28;20224;-84
2022/08/17 12:28:37;;;;;;;7.72;7.03;;;26.10;67.40;;;;;;5023903;28;20177;-83
2022/08/17 12:31:14;;;;;;;7.80;7.22;;;26.10;68.10;;;;;;5027258;28;20213;-83
2022/08/17 12:33:44;;;;;;;7.30;6.80;;;26.40;67.00;;;;;;5025851;28;20185;-84
2022/08/17 12:36:17;;;;;;;7.07;6.60;;;26.60;66.60;;;;;;5023812;28;20239;-84
2022/08/17 12:38:52;;;;;;;8.13;7.43;;;27.00;65.00;;;;;;5028537;28;20213;-84
2022/08/17 12:41:40;;;;;;;7.72;7.13;;;27.80;60.10;;;;;;5030818;28;20547;-84
2022/08/17 12:44:18;;;;;;;7.75;7.15;;;28.70;56.10;;;;;;5025799;28;20216;-84
2022/08/17 12:47:03;;;;;;;8.00;7.30;;;29.30;55.80;;;;;;5028768;28;20184;-84
2022/08/17 12:49:38;;;;;;;7.55;7.05;;;29.60;52.70;;;;;;5025471;28;20288;-84
2022/08/17 12:52:23;;;;;;;8.30;7.60;;;29.80;53.50;;;;;;5021407;28;20250;-85
2022/08/17 12:55:00;;;;;;;7.40;6.80;;;30.20;50.60;;;;;;5026360;28;20186;-83
2022/08/17 12:57:38;;;;;;;7.93;7.30;;;30.20;50.40;;;;;;5025925;28;20215;-84
2022/08/17 13:00:15;;;;;;;7.60;7.00;;;30.40;50.10;;;;;;5026741;28;20263;-84
2022/08/17 13:02:43;;;;;;;7.75;7.25;;;30.60;49.70;;;;;;5027102;28;20279;-84
2022/08/17 13:05:38;;;;;;;7.82;7.32;;;30.50;49.80;;;;;;5024887;28;20683;-84
2022/08/17 13:08:17;;;;;;;7.53;7.05;;;30.80;47.60;;;;;;5024476;28;20193;-83
2022/08/17 13:10:52;;;;;;;7.38;6.80;;;31.00;47.40;;;;;;5023395;28;20256;-83
2022/08/17 13:13:28;;;;;;;7.82;7.32;;;31.00;47.10;;;;;;5025021;28;20697;-83
2022/08/17 13:16:00;;;;;;;7.68;7.18;;;31.20;45.90;;;;;;5025630;28;20271;-84
2022/08/17 13:18:44;;;;;;;8.43;7.82;;;31.50;44.00;;;;;;5023680;28;20201;-84
2022/08/17 13:21:18;;;;;;;8.57;7.88;;;31.90;43.10;;;;;;5029048;28;20189;-85
2022/08/17 13:24:04;;;;;;;7.60;7.15;;;32.00;42.80;;;;;;5028210;28;20212;-84
2022/08/17 13:26:40;;;;;;;7.93;7.43;;;32.10;42.80;;;;;;5030797;28;20176;-84
2022/08/17 13:29:18;;;;;;;7.40;6.90;;;31.80;42.80;;;;;;5034680;28;20205;-83
2022/08/17 13:31:44;;;;;;;7.32;6.82;;;30.80;44.00;;;;;;5031956;28;20595;-86
2022/08/17 13:34:18;;;;;;;7.72;7.22;;;31.30;42.70;;;;;;5034235;28;20710;-86
2022/08/17 13:36:45;;;;;;;7.93;7.32;;;31.30;42.50;;;;;;5031167;28;20652;-85
2022/08/17 13:39:17;;;;;;;8.55;7.78;;;31.70;41.50;;;;;;5035147;28;20208;-86
2022/08/17 13:41:44;;;;;;;8.13;7.45;;;31.80;39.40;;;;;;5032768;28;20232;-85